createdAt,value
2018-02-17T00:02:15.525Z,32.30
2018-02-17T00:08:20.435Z,33.50
2018-02-17T00:14:25.019Z,32.57
2018-02-17T00:20:29.579Z,32.43
2018-02-17T00:26:34.101Z,36.60
2018-02-17T00:32:38.643Z,38.80
2018-02-17T00:38:43.155Z,33.97
2018-02-17T00:44:47.646Z,43.53
2018-02-17T00:50:52.376Z,34.37
2018-02-17T00:56:56.862Z,36.00
2018-02-17T01:03:01.356Z,35.43
2018-02-17T01:09:05.875Z,41.13
2018-02-17T01:15:10.403Z,36.63
2018-02-17T01:21:14.994Z,40.17
2018-02-17T01:27:20.020Z,52.47
2018-02-17T01:33:25.195Z,31.13
2018-02-17T01:39:29.692Z,31.67
2018-02-17T01:45:35.687Z,31.20
2018-02-17T01:51:40.219Z,34.80
2018-02-17T01:57:45.638Z,34.57
2018-02-17T02:03:50.202Z,28.30
2018-02-17T02:09:54.800Z,34.37
2018-02-17T02:15:59.317Z,36.80
2018-02-17T02:22:03.811Z,31.70
2018-02-17T02:28:08.333Z,29.13
2018-02-17T02:34:13.176Z,31.63
2018-02-17T02:40:17.774Z,35.57
2018-02-17T02:46:22.692Z,48.00
2018-02-17T02:52:27.359Z,38.30
2018-02-17T02:58:31.890Z,35.30
2018-02-17T03:04:36.540Z,35.87
2018-02-17T03:10:41.032Z,41.90
2018-02-17T03:16:45.529Z,40.43
2018-02-17T03:22:50.300Z,38.40
2018-02-17T03:28:55.656Z,36.10
2018-02-17T03:35:00.303Z,56.13
2018-02-17T03:41:04.787Z,37.60
2018-02-17T03:47:09.353Z,42.50
2018-02-17T03:53:13.854Z,43.40
2018-02-17T03:59:19.177Z,37.00
2018-02-17T04:05:24.103Z,44.10
2018-02-17T04:11:28.627Z,46.10
2018-02-17T04:17:33.961Z,33.87
2018-02-17T04:23:38.694Z,37.50
2018-02-17T04:29:43.234Z,34.47
2018-02-17T04:35:47.882Z,48.80
2018-02-17T04:41:58.731Z,39.87
2018-02-17T04:48:08.866Z,37.33
2018-02-17T04:54:19.047Z,37.93
2018-02-17T05:00:23.945Z,37.43
2018-02-17T05:06:41.218Z,41.77
2018-02-17T05:12:46.731Z,38.97
2018-02-17T05:19:01.283Z,35.80
2018-02-17T05:25:10.667Z,41.53
2018-02-17T05:31:16.176Z,36.80
2018-02-17T05:37:21.743Z,35.27
2018-02-17T05:43:26.396Z,32.57
2018-02-17T05:49:32.404Z,36.90
2018-02-17T05:55:37.304Z,39.10
2018-02-17T06:01:42.205Z,44.53
2018-02-17T06:07:46.810Z,36.77
2018-02-17T06:13:52.595Z,36.17
2018-02-17T06:19:57.318Z,49.53
2018-02-17T06:26:02.220Z,33.43
2018-02-17T06:32:06.751Z,48.27
2018-02-17T06:38:11.430Z,32.70
2018-02-17T06:44:15.907Z,53.33
2018-02-17T06:50:20.492Z,32.33
2018-02-17T06:56:25.192Z,32.87
2018-02-17T07:02:30.511Z,40.47
2018-02-17T07:08:35.023Z,40.07
2018-02-17T07:14:39.523Z,40.53
2018-02-17T07:20:44.787Z,35.90
2018-02-17T07:26:49.642Z,45.10
2018-02-17T07:32:54.242Z,34.63
2018-02-17T07:38:59.551Z,35.17
2018-02-17T07:45:04.125Z,35.70
2018-02-17T07:51:08.657Z,38.27
2018-02-17T07:57:13.886Z,49.30
2018-02-17T08:03:18.404Z,46.10
2018-02-17T08:09:23.940Z,55.70
2018-02-17T08:15:28.588Z,50.60
2018-02-17T08:21:33.140Z,54.33
2018-02-17T08:27:37.675Z,54.30
2018-02-17T08:33:42.910Z,49.10
2018-02-17T08:39:47.579Z,39.43
2018-02-17T08:45:52.100Z,59.37
2018-02-17T08:51:56.634Z,69.97
2018-02-17T08:58:01.098Z,54.80
2018-02-17T09:04:05.667Z,45.80
2018-02-17T09:10:10.133Z,38.97
2018-02-17T09:16:15.614Z,34.30
2018-02-17T09:22:22.090Z,49.93
2018-02-17T09:28:26.701Z,49.13
2018-02-17T09:34:31.193Z,42.90
2018-02-17T09:40:35.862Z,45.30
2018-02-17T09:46:40.404Z,52.57
2018-02-17T09:52:44.887Z,35.93
2018-02-17T09:58:49.724Z,53.97
2018-02-17T10:04:54.643Z,41.00
2018-02-17T10:11:00.175Z,42.97
2018-02-17T10:17:04.897Z,43.03
2018-02-17T10:23:10.152Z,40.20
2018-02-17T10:29:14.680Z,36.63
2018-02-17T10:35:19.680Z,37.80
2018-02-17T10:41:24.179Z,34.93
2018-02-17T10:47:28.765Z,49.20
2018-02-17T10:53:33.249Z,41.00
2018-02-17T10:59:37.736Z,40.67
2018-02-17T11:05:42.242Z,42.33
2018-02-17T11:11:46.700Z,52.53
2018-02-17T11:17:51.803Z,32.07
2018-02-17T11:23:56.420Z,36.50
2018-02-17T11:30:00.921Z,32.33
2018-02-17T11:36:05.448Z,30.77
2018-02-17T11:42:10.012Z,39.13
2018-02-17T11:48:15.301Z,34.50
2018-02-17T11:54:20.062Z,37.60
2018-02-17T12:00:24.935Z,44.50
2018-02-17T12:06:29.428Z,34.23
2018-02-17T12:12:33.992Z,36.43
2018-02-17T12:18:38.524Z,37.03
2018-02-17T12:24:43.124Z,41.97
2018-02-17T12:30:48.450Z,51.50
2018-02-17T12:36:53.153Z,40.40
2018-02-17T12:42:57.827Z,42.50
2018-02-17T12:49:02.349Z,41.00
2018-02-17T12:55:07.003Z,38.00
2018-02-17T13:01:12.329Z,41.80
2018-02-17T13:07:16.803Z,41.33
2018-02-17T13:13:21.319Z,42.83
2018-02-17T13:19:25.796Z,39.77
2018-02-17T13:25:30.598Z,46.03
2018-02-17T13:31:35.163Z,52.00
2018-02-17T13:37:39.691Z,47.77
2018-02-17T13:43:44.179Z,59.73
2018-02-17T13:49:48.708Z,42.10
2018-02-17T13:55:53.468Z,39.60
2018-02-17T14:01:58.072Z,44.23
2018-02-17T14:08:02.691Z,49.90
2018-02-17T14:14:07.167Z,53.03
2018-02-17T14:20:11.655Z,45.10
2018-02-17T14:26:16.220Z,65.83
2018-02-17T14:32:20.834Z,57.93
2018-02-17T14:38:26.095Z,51.83
2018-02-17T14:44:30.667Z,52.87
2018-02-17T14:50:35.196Z,43.07
2018-02-17T14:56:39.719Z,39.37
2018-02-17T15:02:44.220Z,46.77
2018-02-17T15:08:49.843Z,51.70
2018-02-17T15:14:54.619Z,51.30
2018-02-17T15:20:59.140Z,49.90
2018-02-17T15:27:04.368Z,56.93
2018-02-17T15:33:08.895Z,49.43
2018-02-17T15:39:13.504Z,54.20
2018-02-17T15:45:18.014Z,47.63
2018-02-17T16:04:24.090Z,45.13
2018-02-17T16:10:28.796Z,33.33
2018-02-17T16:16:33.318Z,40.30
2018-02-17T16:22:37.827Z,42.80
2018-02-17T16:28:42.430Z,44.07
2018-02-17T16:34:47.832Z,43.50
2018-02-17T16:40:52.498Z,27.13
2018-02-17T16:46:57.780Z,32.63
2018-02-17T16:53:02.354Z,33.43
2018-02-17T16:59:06.855Z,25.50
2018-02-17T17:05:11.358Z,35.30
2018-02-17T17:11:16.161Z,38.43
2018-02-17T17:17:20.796Z,27.50
2018-02-17T17:23:25.470Z,27.40
2018-02-17T17:29:30.181Z,28.33
2018-02-17T17:35:34.942Z,29.87
2018-02-17T17:41:39.393Z,28.57
2018-02-17T17:47:43.916Z,23.27
2018-02-17T17:53:49.162Z,29.97
2018-02-17T17:59:53.739Z,25.27
2018-02-17T18:05:58.218Z,22.27
2018-02-17T18:12:02.770Z,18.43
2018-02-17T18:18:08.148Z,13.87
2018-02-17T18:24:12.680Z,24.13
2018-02-17T18:30:17.180Z,15.27
2018-02-17T18:36:22.461Z,21.13
2018-02-17T18:42:26.951Z,11.80
2018-02-17T18:48:32.187Z,15.20
2018-02-17T18:54:36.677Z,17.93
2018-02-17T19:00:41.149Z,16.93
2018-02-17T19:06:45.870Z,12.43
2018-02-17T19:12:50.888Z,21.93
2018-02-17T19:18:55.404Z,16.23
2018-02-17T19:25:00.750Z,19.53
2018-02-17T19:31:05.230Z,14.93
2018-02-17T19:37:09.709Z,17.73
2018-02-17T19:43:14.439Z,15.83
2018-02-17T19:49:19.358Z,14.67
2018-02-17T19:55:24.163Z,10.87
2018-02-17T20:01:28.667Z,20.67
2018-02-17T20:07:33.149Z,10.73
2018-02-17T20:13:37.716Z,10.87
2018-02-17T20:19:42.949Z,20.93
2018-02-17T20:25:47.416Z,10.40
2018-02-17T20:31:52.743Z,10.00
2018-02-17T20:37:57.269Z,21.70
2018-02-17T20:44:01.699Z,7.83
2018-02-17T20:50:06.265Z,16.70
2018-02-17T20:56:10.906Z,11.27
2018-02-17T21:02:15.396Z,7.77
2018-02-17T21:08:20.199Z,8.80
2018-02-17T21:14:24.993Z,11.27
2018-02-17T21:20:29.498Z,12.43
2018-02-17T21:26:34.001Z,10.93
2018-02-17T21:32:38.520Z,12.40
2018-02-17T21:38:43.029Z,10.53
2018-02-17T21:44:48.418Z,9.70
2018-02-17T21:50:53.892Z,14.57
2018-02-17T21:56:58.378Z,16.57
2018-02-17T22:03:03.086Z,8.53
2018-02-17T22:09:07.693Z,10.80
2018-02-17T22:15:12.231Z,8.93
2018-02-17T22:21:16.728Z,18.67
2018-02-17T22:27:21.683Z,13.63
2018-02-17T22:33:26.213Z,10.77
2018-02-17T22:39:30.682Z,9.00
2018-02-17T22:45:35.984Z,5.53
2018-02-17T22:51:41.302Z,8.30
2018-02-17T22:57:46.642Z,11.47
2018-02-17T23:03:51.132Z,11.50
2018-02-17T23:09:55.624Z,3.83
2018-02-17T23:16:00.267Z,6.40
2018-02-17T23:22:04.765Z,10.90
2018-02-17T23:28:10.052Z,6.23
2018-02-17T23:34:14.569Z,9.97
2018-02-17T23:40:19.035Z,8.07
2018-02-17T23:46:24.324Z,9.67
2018-02-17T23:52:29.600Z,2.40
2018-02-17T23:58:34.115Z,12.53
